Time,TemperatureF,DewpointF,PressureIn,WindDirection,WindDirectionDegrees,WindSpeedMPH,WindSpeedGustMPH,Humidity,HourlyPrecipIn,Conditions,Clouds,dailyrainin,SoftwareType,DateUTC
2013-08-31 00:12:00,85.0,77.0,29.88,WNW,286,0.0,-999.0,76,-99.99,,,-99.99,,2013-08-31 07:12:00,
2013-08-31 00:22:00,84.0,75.0,29.88,WNW,286,0.0,-999.0,75,-99.99,,,-99.99,,2013-08-31 07:22:00,
2013-08-31 00:42:00,84.0,74.0,29.88,West,281,2.0,-999.0,71,-99.99,,,-99.99,,2013-08-31 07:42:00,
2013-08-31 00:52:00,85.0,75.0,29.87,West,281,0.0,-999.0,73,-99.99,,,-99.99,,2013-08-31 07:52:00,
2013-08-31 01:12:00,84.0,75.0,29.87,West,281,0.0,-999.0,75,-99.99,,,-99.99,,2013-08-31 08:12:00,
2013-08-31 01:22:00,84.0,75.0,29.87,West,281,0.0,-999.0,75,-99.99,,,-99.99,,2013-08-31 08:22:00,
2013-08-31 01:42:00,84.0,76.0,29.86,West,281,0.0,-999.0,76,-99.99,,,-99.99,,2013-08-31 08:42:00,
2013-08-31 01:52:00,84.0,75.0,29.86,West,281,0.0,-999.0,74,-99.99,,,-99.99,,2013-08-31 08:52:00,
2013-08-31 02:12:00,84.0,74.0,29.86,West,281,0.0,-999.0,72,-99.99,,,-99.99,,2013-08-31 09:12:00,
2013-08-31 02:23:00,84.0,75.0,29.86,West,281,0.0,-999.0,74,-99.99,,,-99.99,,2013-08-31 09:23:00,
2013-08-31 02:43:00,83.0,75.0,29.86,West,281,0.0,-999.0,76,-99.99,,,-99.99,,2013-08-31 09:43:00,
2013-08-31 02:53:00,83.0,75.0,29.85,West,281,0.0,-999.0,78,-99.99,,,-99.99,,2013-08-31 09:53:00,
2013-08-31 03:12:00,82.0,75.0,29.85,West,281,0.0,-999.0,80,-99.99,,,-99.99,,2013-08-31 10:12:00,
2013-08-31 03:23:00,82.0,75.0,29.85,West,281,0.0,-999.0,80,-99.99,,,-99.99,,2013-08-31 10:23:00,
2013-08-31 03:43:00,82.0,75.0,29.84,West,281,0.0,-999.0,80,-99.99,,,-99.99,,2013-08-31 10:43:00,
2013-08-31 03:53:00,82.0,75.0,29.84,West,281,0.0,-999.0,80,-99.99,,,-99.99,,2013-08-31 10:53:00,
2013-08-31 04:12:00,82.0,75.0,29.84,West,281,0.0,-999.0,79,-99.99,,,-99.99,,2013-08-31 11:12:00,
2013-08-31 04:21:00,82.0,76.0,29.84,West,281,0.0,-999.0,81,-99.99,,,-99.99,,2013-08-31 11:21:00,
2013-08-31 04:52:00,82.0,75.0,29.84,West,281,0.0,-999.0,80,-99.99,,,-99.99,,2013-08-31 11:52:00,
2013-08-31 05:11:00,83.0,76.0,29.84,West,281,0.0,-999.0,79,-99.99,,,-99.99,,2013-08-31 12:11:00,
2013-08-31 05:21:00,82.0,74.0,29.85,West,281,0.0,-999.0,77,-99.99,,,-99.99,,2013-08-31 12:21:00,
2013-08-31 05:42:00,82.0,74.0,29.85,West,281,0.0,-999.0,77,-99.99,,,-99.99,,2013-08-31 12:42:00,
2013-08-31 05:52:00,83.0,75.0,29.85,West,281,0.0,-999.0,78,-99.99,,,-99.99,,2013-08-31 12:52:00,
2013-08-31 06:11:00,83.0,76.0,29.86,West,281,0.0,-999.0,80,-99.99,,,-99.99,,2013-08-31 13:11:00,
2013-08-31 06:22:00,82.0,76.0,29.86,West,281,0.0,-999.0,82,-99.99,,,-99.99,,2013-08-31 13:22:00,
2013-08-31 06:42:00,82.0,76.0,29.86,West,281,0.0,-999.0,82,-99.99,,,-99.99,,2013-08-31 13:42:00,
2013-08-31 06:52:00,82.0,76.0,29.87,West,281,0.0,-999.0,82,-99.99,,,-99.99,,2013-08-31 13:52:00,
2013-08-31 07:11:00,82.0,76.0,29.88,West,281,0.0,-999.0,83,-99.99,,,-99.99,,2013-08-31 14:11:00,
2013-08-31 07:21:00,82.0,76.0,29.88,West,281,0.0,-999.0,82,-99.99,,,-99.99,,2013-08-31 14:21:00,
2013-08-31 07:52:00,83.0,77.0,29.88,West,281,0.0,-999.0,83,-99.99,,,-99.99,,2013-08-31 14:52:00,
2013-08-31 08:11:00,84.0,79.0,29.89,West,281,0.0,-999.0,84,-99.99,,,-99.99,,2013-08-31 15:11:00,
2013-08-31 08:22:00,84.0,78.0,29.89,West,281,0.0,-999.0,81,-99.99,,,-99.99,,2013-08-31 15:22:00,
2013-08-31 08:44:00,85.0,78.0,29.89,West,281,0.0,-999.0,79,-99.99,,,-99.99,,2013-08-31 15:44:00,
2013-08-31 08:55:00,86.0,78.0,29.89,West,281,0.0,-999.0,77,-99.99,,,-99.99,,2013-08-31 15:55:00,
2013-08-31 09:13:00,86.0,78.0,29.89,West,281,0.0,-999.0,77,-99.99,,,-99.99,,2013-08-31 16:13:00,
2013-08-31 09:25:00,87.0,78.0,29.90,West,281,0.0,-999.0,76,-99.99,,,-99.99,,2013-08-31 16:25:00,
2013-08-31 09:43:00,88.0,79.0,29.90,West,281,0.0,-999.0,74,-99.99,,,-99.99,,2013-08-31 16:43:00,
2013-08-31 09:52:00,88.0,77.0,29.90,West,281,0.0,-999.0,69,-99.99,,,-99.99,,2013-08-31 16:52:00,
2013-08-31 10:12:00,89.0,75.0,29.90,West,281,0.0,-999.0,64,-99.99,,,-99.99,,2013-08-31 17:12:00,
2013-08-31 10:23:00,90.0,75.0,29.90,West,267,0.0,-999.0,62,-99.99,,,-99.99,,2013-08-31 17:23:00,
2013-08-31 10:42:00,91.0,74.0,29.90,SW,225,0.0,-999.0,58,-99.99,,,-99.99,,2013-08-31 17:42:00,
2013-08-31 10:53:00,93.0,75.0,29.89,SSE,159,1.0,-999.0,56,-99.99,,,-99.99,,2013-08-31 17:53:00,
2013-08-31 11:12:00,94.0,75.0,29.89,SE,130,2.0,-999.0,54,-99.99,,,-99.99,,2013-08-31 18:12:00,
2013-08-31 11:21:00,93.0,75.0,29.89,SE,130,3.0,-999.0,57,-99.99,,,-99.99,,2013-08-31 18:21:00,
2013-08-31 11:42:00,94.0,74.0,29.88,SE,136,2.0,-999.0,52,-99.99,,,-99.99,,2013-08-31 18:42:00,
2013-08-31 11:52:00,96.0,74.0,29.88,SE,136,0.0,-999.0,49,-99.99,,,-99.99,,2013-08-31 18:52:00,
2013-08-31 12:12:00,96.0,72.0,29.88,SE,134,1.0,-999.0,47,-99.99,,,-99.99,,2013-08-31 19:12:00,
2013-08-31 12:21:00,96.0,72.0,29.88,SE,134,1.0,-999.0,47,-99.99,,,-99.99,,2013-08-31 19:21:00,
2013-08-31 12:42:00,98.0,73.0,29.87,SE,135,0.0,-999.0,45,-99.99,,,-99.99,,2013-08-31 19:42:00,
2013-08-31 12:52:00,99.0,71.0,29.86,ESE,114,2.0,-999.0,41,-99.99,,,-99.99,,2013-08-31 19:52:00,
2013-08-31 13:12:00,99.0,73.0,29.85,ESE,114,2.0,-999.0,44,-99.99,,,-99.99,,2013-08-31 20:12:00,
2013-08-31 13:22:00,98.0,75.0,29.84,SE,126,7.0,-999.0,48,-99.99,,,-99.99,,2013-08-31 20:22:00,
2013-08-31 13:42:00,98.0,74.0,29.84,SE,135,4.0,-999.0,47,-99.99,,,-99.99,,2013-08-31 20:42:00,
2013-08-31 13:52:00,98.0,73.0,29.83,ESE,109,6.0,-999.0,45,-99.99,,,-99.99,,2013-08-31 20:52:00,
2013-08-31 14:12:00,98.0,72.0,29.83,SSE,148,6.0,-999.0,43,-99.99,,,-99.99,,2013-08-31 21:12:00,
2013-08-31 14:22:00,99.0,73.0,29.82,SE,126,6.0,-999.0,43,-99.99,,,-99.99,,2013-08-31 21:22:00,
2013-08-31 14:54:00,99.0,73.0,29.80,ESE,105,6.0,-999.0,43,-99.99,,,-99.99,,2013-08-31 21:54:00,
2013-08-31 15:13:00,100.0,73.0,29.79,ESE,121,6.0,-999.0,42,-99.99,,,-99.99,,2013-08-31 22:13:00,
2013-08-31 15:23:00,101.0,74.0,29.78,ESE,121,5.0,-999.0,42,-99.99,,,-99.99,,2013-08-31 22:23:00,
2013-08-31 15:43:00,101.0,74.0,29.78,East,92,5.0,-999.0,42,-99.99,,,-99.99,,2013-08-31 22:43:00,
2013-08-31 15:53:00,101.0,74.0,29.78,ESE,117,7.0,-999.0,42,-99.99,,,-99.99,,2013-08-31 22:53:00,
2013-08-31 16:22:00,98.0,74.0,29.76,ESE,119,12.0,-999.0,47,-99.99,,,-99.99,,2013-08-31 23:22:00,
2013-08-31 16:52:00,97.0,73.0,29.75,ESE,117,11.0,-999.0,47,-99.99,,,-99.99,,2013-08-31 23:52:00,
2013-08-31 17:11:00,98.0,74.0,29.75,SE,133,11.0,-999.0,46,-99.99,,,-99.99,,2013-09-01 00:11:00,
2013-08-31 17:21:00,97.0,75.0,29.74,SE,131,13.0,-999.0,49,-99.99,,,-99.99,,2013-09-01 00:21:00,
2013-08-31 17:42:00,97.0,73.0,29.74,SE,126,12.0,-999.0,47,-99.99,,,-99.99,,2013-09-01 00:42:00,
2013-08-31 17:52:00,96.0,72.0,29.74,ESE,117,13.0,-999.0,47,-99.99,,,-99.99,,2013-09-01 00:52:00,
2013-08-31 18:11:00,97.0,73.0,29.74,ESE,109,12.0,-999.0,46,-99.99,,,-99.99,,2013-09-01 01:11:00,
2013-08-31 18:21:00,98.0,72.0,29.74,SE,146,7.0,-999.0,43,-99.99,,,-99.99,,2013-09-01 01:21:00,
2013-08-31 18:42:00,98.0,72.0,29.74,SE,130,4.0,-999.0,43,-99.99,,,-99.99,,2013-09-01 01:42:00,
2013-08-31 18:52:00,98.0,71.0,29.74,ESE,123,4.0,-999.0,42,-99.99,,,-99.99,,2013-09-01 01:52:00,
2013-08-31 19:12:00,97.0,69.0,29.74,ESE,112,3.0,-999.0,41,-99.99,,,-99.99,,2013-09-01 02:12:00,
2013-08-31 19:22:00,96.0,71.0,29.75,ESE,112,0.0,-999.0,45,-99.99,,,-99.99,,2013-09-01 02:22:00,
2013-08-31 19:42:00,95.0,70.0,29.76,West,269,1.0,-999.0,45,-99.99,,,-99.99,,2013-09-01 02:42:00,
2013-08-31 19:53:00,95.0,70.0,29.77,West,281,4.0,-999.0,45,-99.99,,,-99.99,,2013-09-01 02:53:00,
2013-08-31 20:12:00,94.0,69.0,29.78,WNW,284,2.0,-999.0,45,-99.99,,,-99.99,,2013-09-01 03:12:00,
2013-08-31 20:22:00,94.0,69.0,29.78,West,279,3.0,-999.0,45,-99.99,,,-99.99,,2013-09-01 03:22:00,
2013-08-31 20:44:00,95.0,70.0,29.79,West,269,8.0,-999.0,45,-99.99,,,-99.99,,2013-09-01 03:44:00,
2013-08-31 20:54:00,93.0,71.0,29.80,West,280,11.0,-999.0,49,-99.99,,,-99.99,,2013-09-01 03:54:00,
2013-08-31 21:03:00,-999.0,-99.9,29.80,West,273,4.0,-999.0,-999,-99.99,,,-99.99,,2013-09-01 04:03:00,
2013-08-31 21:14:00,91.0,71.0,29.80,West,273,4.0,-999.0,52,-99.99,,,-99.99,,2013-09-01 04:14:00,
2013-08-31 21:24:00,90.0,72.0,29.80,WNW,284,3.0,-999.0,55,-99.99,,,-99.99,,2013-09-01 04:24:00,
2013-08-31 21:43:00,90.0,72.0,29.80,WNW,288,3.0,-999.0,56,-99.99,,,-99.99,,2013-09-01 04:43:00,
2013-08-31 21:54:00,90.0,71.0,29.80,WNW,299,7.0,-999.0,54,-99.99,,,-99.99,,2013-09-01 04:54:00,
2013-08-31 22:12:00,89.0,71.0,29.80,WNW,292,4.0,-999.0,56,-99.99,,,-99.99,,2013-09-01 05:12:00,
2013-08-31 22:22:00,89.0,71.0,29.80,WNW,286,2.0,-999.0,56,-99.99,,,-99.99,,2013-09-01 05:22:00,
2013-08-31 22:52:00,88.0,73.0,29.80,WNW,292,2.0,-999.0,61,-99.99,,,-99.99,,2013-09-01 05:52:00,
2013-08-31 23:12:00,87.0,71.0,29.80,WNW,292,0.0,-999.0,60,-99.99,,,-99.99,,2013-09-01 06:12:00,
2013-08-31 23:22:00,87.0,72.0,29.80,WNW,292,0.0,-999.0,61,-99.99,,,-99.99,,2013-09-01 06:22:00,
2013-08-31 23:42:00,87.0,71.0,29.80,WNW,292,0.0,-999.0,60,-99.99,,,-99.99,,2013-09-01 06:42:00,
2013-08-31 23:52:00,87.0,71.0,29.80,WNW,292,0.0,-999.0,60,-99.99,,,-99.99,,2013-09-01 06:52:00,